Latest Coastal Weather Observations for Evans Head

IDN60701

Issued at 4:51 am EST Tuesday 28 June 2022 (issued every 10 minutes, with the page automatically refreshed every 10 minutes)

About coastal observations | Map of coastal stations | Coastal observations for NSW | Marine services | Other Formats
Station Details ID: 058212 Name: EVANS HEAD RAAF BOMBING RANGE AWS Lat: -29.18 Lon: 153.40 Height: 62.5 m
Data from the previous 72 hours. | See also: Recent months at Evans Head
Date/Time
EST
Wind Sea
Height
m
Swell Vis
km
Cloud Weather Temp
°C
Press
MSL
hPa
Rain since
9am
mm
Dir  Spd
kts
Gust
kts
Height
m
Period
s
Dir
28/04:30am SW 11 16 - - - - - - - 11.1 1024.1 0.0
28/04:00am SW 11 15 - - - - - - - 11.2 1024.0 0.0
28/03:30am SW 11 17 - - - - - - - 11.2 1024.1 0.0
28/03:00am SW 11 16 - - - - - - - 11.4 1023.8 0.0
28/02:30am SW 11 17 - - - - - - - 11.3 1023.9 0.0
28/02:00am SSW 13 19 - - - - - - - 11.7 1024.1 0.0
28/01:30am SSW 13 19 - - - - - - - 11.8 1024.1 0.0
28/01:00am SSW 14 19 - - - - - - - 12.2 1024.2 0.0
28/12:30am SSW 14 21 - - - - - - - 12.4 1024.2 0.0
28/12:00am SSW 15 27 - - - - - - - 12.6 1024.4 0.0
 
Date/Time
EST
Wind Sea
Height
m
Swell Vis
km
Cloud Weather Temp
°C
Press
MSL
hPa
Rain since
9am
mm
Dir  Spd
kts
Gust
kts
Height
m
Period
s
Dir
27/11:54pm SSW 15 27 - - - - - - - 12.9 1024.4 0.0
27/11:30pm SSW 15 23 - - - - - - - 12.9 1024.5 0.0
27/11:00pm SSW 16 24 - - - - - - - 13.3 1024.5 0.0
27/10:30pm SSW 15 21 - - - - - - - 13.7 1024.6 0.0
27/10:00pm S 19 31 - - - - - - - 14.7 1024.6 0.0
27/09:30pm S 21 33 - - - - - - - 15.4 1024.0 0.0
27/09:00pm S 25 36 - - - - - - - 15.7 1023.7 0.0
27/08:31pm S 23 33 - - - - - - - 16.2 1023.3 0.0
27/08:30pm S 23 32 - - - - - - - 16.2 1023.3 0.0
27/08:01pm S 23 35 - - - - - - - 16.6 1022.8 0.0
27/08:00pm S 23 32 - - - - - - - 16.6 1022.9 0.0
27/07:30pm S 23 33 - - - - - - - 16.9 1022.7 0.0
27/07:00pm S 21 31 - - - - - - - 17.0 1022.5 0.0
27/06:31pm S 19 29 - - - - - - - 16.9 1022.5 0.0
27/06:30pm SSE 20 29 - - - - - - - 16.9 1022.5 0.0
27/06:00pm SSE 20 28 - - - - - - - 17.1 1021.9 0.0
27/05:30pm SSE 16 23 - - - - - - - 16.8 1021.5 0.0
27/05:00pm SSE 12 16 - - - - - - - 16.4 1021.3 0.0
27/04:30pm SSE 9 13 - - - - - - - 16.0 1021.0 0.0
27/04:00pm SSE 7 9 - - - - - - - 17.0 1020.7 0.0
27/03:30pm SSE 8 10 - - - - - - - 18.0 1020.5 0.0
27/03:00pm SSE 8 11 - - - - - - - 18.5 1020.5 0.0
27/02:30pm SSE 9 13 - - - - - - - 19.0 1020.6 0.0
27/02:00pm SSE 11 17 - - - - - - - 19.1 1020.5 0.0
27/01:30pm SSE 15 20 - - - - - - - 19.0 1020.4 0.0
27/01:00pm S 13 18 - - - - - - - 19.2 1020.7 0.0
27/12:30pm S 9 14 - - - - - - - 19.2 1021.1 0.0
27/12:00pm S 9 15 - - - - - - - 19.1 1021.6 0.0
27/11:30am S 11 17 - - - - - - - 18.5 1021.9 0.0
27/11:00am SSW 9 13 - - - - - - - 18.5 1022.4 0.0
27/10:30am SW 9 14 - - - - - - - 17.5 1022.7 0.0
27/10:00am SW 7 12 - - - - - - - 17.0 1022.7 0.0
27/09:30am WSW 8 12 - - - - - - - 15.4 1023.0 0.0
27/09:00am WNW 8 13 - - - - - - - 15.2 1022.9 0.0
27/08:30am WNW 8 12 - - - - - - - 14.0 1022.7 0.0
27/08:00am NNW 6 10 - - - - - - - 12.1 1022.2 0.0
27/07:30am WNW 6 10 - - - - - - - 11.9 1022.3 0.0
27/07:00am W 8 11 - - - - - - - 12.8 1022.4 0.0
27/06:30am WNW 9 13 - - - - - - - 13.5 1022.3 0.0
27/06:00am WNW 9 13 - - - - - - - 12.8 1022.5 0.0
27/05:30am WNW 8 12 - - - - - - - 12.9 1022.2 0.0
27/05:00am WNW 7 10 - - - - - - - 13.2 1022.2 0.0
27/04:30am WNW 7 11 - - - - - - - 13.3 1022.0 0.0
27/04:00am WNW 7 11 - - - - - - - 13.0 1022.1 0.0
27/03:30am W 3 5 - - - - - - - 13.0 1022.5 0.0
27/03:00am WSW 4 7 - - - - - - - 12.8 1023.0 0.0
27/02:30am SW 2 5 - - - - - - - 12.8 1023.3 0.0
27/02:00am NNW 4 7 - - - - - - - 11.6 1023.3 0.0
27/01:30am NNW 6 9 - - - - - - - 11.3 1023.5 0.0
27/01:00am NNW 6 9 - - - - - - - 11.3 1023.6 0.0
27/12:30am NNW 5 6 - - - - - - - 11.6 1023.9 0.0
27/12:00am NNW 6 8 - - - - - - - 12.0 1024.0 0.0
 
Date/Time
EST
Wind Sea
Height
m
Swell Vis
km
Cloud Weather Temp
°C
Press
MSL
hPa
Rain since
9am
mm
Dir  Spd
kts
Gust
kts
Height
m
Period
s
Dir
26/11:30pm NNW 6 7 - - - - - - - 12.3 1024.3 0.0
26/11:00pm NNW 5 7 - - - - - - - 12.8 1024.6 0.0
26/10:30pm NNW 6 7 - - - - - - - 13.3 1024.3 0.0
26/10:00pm NNW 5 6 - - - - - - - 13.0 1024.4 0.0
26/09:30pm NNW 5 6 - - - - - - - 13.1 1024.3 0.0
26/09:00pm NNW 5 6 - - - - - - - 13.3 1024.4 0.0
26/08:30pm NNW 5 7 - - - - - - - 13.7 1024.1 0.0
26/08:00pm NNW 5 5 - - - - - - - 14.7 1024.6 0.0
26/07:30pm NW 4 5 - - - - - - - 15.1 1024.4 0.0
26/07:00pm NNE 5 6 - - - - - - - 15.9 1024.0 0.0
26/06:30pm NNE 5 7 - - - - - - - 15.6 1023.8 0.0
26/06:00pm NE 5 5 - - - - - - - 15.8 1023.6 0.0
26/05:30pm NNE 4 5 - - - - - - - 15.8 1023.2 0.0
26/05:00pm NE 5 6 - - - - - - - 16.3 1023.0 0.0
26/04:30pm ENE 5 6 - - - - - - - 17.0 1023.1 0.0
26/04:00pm E 5 6 - - - - - - - 17.4 1023.3 0.0
26/03:30pm E 6 7 - - - - - - - 18.2 1023.1 0.0
26/03:00pm ESE 5 7 - - - - - - - 18.8 1023.1 0.0
26/02:30pm ESE 5 7 - - - - - - - 18.9 1023.2 0.0
26/02:00pm SE 5 6 - - - - - - - 19.4 1023.2 0.0
26/01:30pm SE 6 7 - - - - - - - 18.6 1023.3 0.0
26/01:00pm SE 6 8 - - - - - - - 19.3 1023.7 0.0
26/12:30pm SW 3 5 - - - - - - - 21.0 1023.9 0.0
26/12:00pm SW 4 6 - - - - - - - 19.1 1024.5 0.0
26/11:30am W 4 7 - - - - - - - 18.7 1025.0 0.0
26/11:00am W 5 6 - - - - - - - 18.0 1025.2 0.0
26/10:30am W 4 6 - - - - - - - 17.6 1025.4 0.0
26/10:00am W 5 8 - - - - - - - 16.3 1025.4 0.0
26/09:30am W 4 5 - - - - - - - 14.9 1025.6 0.0
26/09:00am WNW 4 7 - - - - - - - 14.6 1025.5 0.0
26/08:30am W 4 6 - - - - - - - 12.8 1025.4 0.0
26/08:00am NNW 4 5 - - - - - - - 10.8 1025.4 0.0
26/07:30am WNW 3 5 - - - - - - - 9.7 1025.4 0.0
26/07:00am NW 4 5 - - - - - - - 8.4 1025.1 0.0
26/06:30am WSW 3 4 - - - - - - - 8.7 1024.9 0.0
26/06:00am WNW 4 5 - - - - - - - 8.9 1024.7 0.0
26/05:30am WSW 6 8 - - - - - - - 11.2 1024.3 0.0
26/05:00am WSW 5 7 - - - - - - - 11.3 1023.8 0.0
26/04:30am W 6 7 - - - - - - - 10.7 1023.6 0.0
26/04:00am W 5 7 - - - - - - - 11.0 1023.5 0.0
26/03:30am WSW 5 7 - - - - - - - 12.3 1023.5 0.0
26/03:00am WSW 4 6 - - - - - - - 12.3 1023.6 0.0
26/02:30am WSW 6 7 - - - - - - - 12.8 1023.8 0.0
26/02:00am W 8 9 - - - - - - - 13.4 1023.7 0.0
26/01:30am W 8 9 - - - - - - - 13.4 1023.6 0.0
26/01:00am W 7 8 - - - - - - - 14.3 1023.6 0.0
26/12:30am W 6 7 - - - - - - - 13.5 1023.6 0.0
26/12:00am W 6 7 - - - - - - - 13.9 1023.9 0.0
 
Date/Time
EST
Wind Sea
Height
m
Swell Vis
km
Cloud Weather Temp
°C
Press
MSL
hPa
Rain since
9am
mm
Dir  Spd
kts
Gust
kts
Height
m
Period
s
Dir
25/11:30pm WSW 7 8 - - - - - - - 14.5 1024.1 0.0
25/11:00pm WSW 8 9 - - - - - - - 14.7 1024.1 0.0
25/10:30pm SW 8 9 - - - - - - - 14.8 1024.3 0.0
25/10:00pm WSW 7 8 - - - - - - - 15.0 1024.2 0.0
25/09:30pm WSW 6 7 - - - - - - - 15.1 1024.1 0.0
25/09:00pm SW 6 7 - - - - - - - 15.3 1024.2 0.0
25/08:30pm SW 5 7 - - - - - - - 15.1 1024.0 0.0
25/08:00pm SW 6 8 - - - - - - - 15.5 1023.7 0.0
25/07:30pm SW 5 7 - - - - - - - 15.3 1023.6 0.0
25/07:00pm SSW 6 7 - - - - - - - 15.6 1023.1 0.0
25/06:30pm SSW 6 7 - - - - - - - 15.4 1022.7 0.0
25/06:00pm SSW 5 6 - - - - - - - 15.7 1022.3 0.0
25/05:30pm SSW 5 6 - - - - - - - 15.1 1022.0 0.0
25/05:00pm S 6 7 - - - - - - - 15.5 1021.8 0.0
25/04:30pm S 5 6 - - - - - - - 16.2 1021.8 0.0
25/04:00pm S 6 7 - - - - - - - 16.8 1021.7 0.0
25/03:30pm SSE 7 9 - - - - - - - 17.7 1021.5 0.0
25/03:00pm S 6 9 - - - - - - - 18.5 1021.4 0.0
25/02:30pm SSE 7 10 - - - - - - - 18.9 1021.1 0.0
25/02:00pm S 9 13 - - - - - - - 19.2 1021.2 0.0
25/01:30pm S 8 12 - - - - - - - 19.1 1021.3 0.0
25/01:00pm S 8 13 - - - - - - - 19.0 1021.4 0.0
25/12:30pm S 9 14 - - - - - - - 19.1 1021.7 0.0
25/12:00pm S 7 11 - - - - - - - 19.3 1021.9 0.0
25/11:30am SSW 8 13 - - - - - - - 18.8 1022.1 0.0
25/11:00am SW 6 9 - - - - - - - 18.2 1022.4 0.0
25/10:30am SW 7 11 - - - - - - - 17.2 1022.6 0.0
25/10:00am SW 8 11 - - - - - - - 16.0 1022.6 0.0
25/09:30am W 7 9 - - - - - - - 15.4 1022.8 0.0
25/09:00am W 7 10 - - - - - - - 14.4 1022.7 0.0
25/08:30am W 7 10 - - - - - - - 13.4 1022.5 0.0
25/08:00am WSW 8 12 - - - - - - - 12.5 1022.2 0.0
25/07:30am W 8 11 - - - - - - - 11.8 1021.8 0.0
25/07:00am W 6 9 - - - - - - - 10.8 1021.5 0.0
25/06:30am W 5 7 - - - - - - - 10.6 1021.3 0.0
25/06:00am W 7 9 - - - - - - - 10.8 1021.0 0.0
25/05:30am W 7 9 - - - - - - - 10.8 1020.6 0.0
25/05:00am W 7 9 - - - - - - - 10.9 1020.2 0.0

Other formats

Comma delimited format used in spreadsheet applications
http://www.bom.gov.au/fwo/IDN60701/IDN60701.94598.axf

JavaScript Object Notation format (JSON) in row-major order
http://www.bom.gov.au/fwo/IDN60701/IDN60701.94598.json

Data quality

Most of these data are generated automatically and are frequently updated. Quality checks on data are not normally performed. It is possible for incorrect values to appear. Refer to information at About Latest Weather Observations and please check the disclaimer before using these data.